Time;durP1;ratioP1;P1;durP2;ratioP2;P2;SDS_P1;SDS_P2;PMS_P1;PMS_P2;Temp;Humidity;BMP_temperature;BMP_pressure;BME280_temperature;BME280_humidity;BME280_pressure;Samples;Min_cycle;Max_cycle;Signal;HPM_P1;HPM_P2
2023/01/25 00:00:24;;;;;;;26.37;16.13;;;;;;;;;;5119108;27;20297;-73
2023/01/25 00:02:49;;;;;;;29.23;16.70;;;;;;;;;;5123694;27;20203;-73
2023/01/25 00:05:15;;;;;;;30.80;16.87;;;;;;;;;;5123277;27;21949;-73
2023/01/25 00:07:40;;;;;;;27.97;16.40;;;;;;;;;;5111322;27;20625;-73
2023/01/25 00:10:05;;;;;;;26.40;16.83;;;;;;;;;;5114302;27;20180;-73
2023/01/25 00:12:30;;;;;;;27.40;17.60;;;;;;;;;;5116723;28;20725;-73
2023/01/25 00:14:55;;;;;;;30.30;17.27;;;;;;;;;;5113888;28;20174;-73
2023/01/25 00:17:21;;;;;;;26.23;16.80;;;;;;;;;;5113358;28;20275;-73
2023/01/25 00:19:46;;;;;;;29.97;17.00;;;;;;;;;;5113080;28;20735;-72
2023/01/25 00:22:11;;;;;;;27.30;16.03;;;;;;;;;;5110722;28;20251;-73
2023/01/25 00:24:36;;;;;;;27.70;16.50;;;;;;;;;;5117694;28;20182;-73
2023/01/25 00:27:02;;;;;;;30.57;17.67;;;;;;;;;;5111465;28;20171;-73
2023/01/25 00:29:27;;;;;;;29.60;16.77;;;;;;;;;;5111426;28;21001;-73
2023/01/25 00:31:57;;;;;;;27.23;15.83;;;;;;;;;;5112417;28;20207;-73
2023/01/25 00:34:25;;;;;;;27.53;16.10;;;;;;;;;;5109695;28;20594;-73
2023/01/25 00:36:56;;;;;;;28.20;17.17;;;;;;;;;;5113429;28;20183;-73
2023/01/25 00:39:22;;;;;;;29.03;17.23;;;;;;;;;;5112653;28;20200;-73
2023/01/25 00:41:47;;;;;;;25.30;15.80;;;;;;;;;;5109101;28;20686;-73
2023/01/25 00:44:12;;;;;;;28.17;17.40;;;;;;;;;;5110631;28;20221;-72
2023/01/25 00:46:38;;;;;;;27.90;16.37;;;;;;;;;;5122028;28;20560;-73
2023/01/25 00:49:03;;;;;;;31.73;18.60;;;;;;;;;;5122705;28;20659;-73
2023/01/25 00:51:28;;;;;;;27.57;16.90;;;;;;;;;;5108604;28;20199;-73
2023/01/25 00:53:54;;;;;;;28.80;16.83;;;;;;;;;;5124730;27;20231;-73
2023/01/25 00:56:19;;;;;;;28.53;16.73;;;;;;;;;;5131609;27;20601;-73
2023/01/25 00:58:44;;;;;;;29.07;17.23;;;;;;;;;;5126401;27;20175;-73
2023/01/25 01:01:10;;;;;;;24.83;15.77;;;;;;;;;;5132947;27;20232;-73
2023/01/25 01:03:35;;;;;;;30.10;16.97;;;;;;;;;;5131077;27;20171;-73
2023/01/25 01:06:01;;;;;;;29.43;17.07;;;;;;;;;;5114951;27;20176;-74
2023/01/25 01:08:26;;;;;;;26.97;16.00;;;;;;;;;;5124470;27;20657;-73
2023/01/25 01:10:57;;;;;;;30.93;17.23;;;;;;;;;;5135209;27;20171;-73
2023/01/25 01:13:22;;;;;;;26.47;16.23;;;;;;;;;;5132278;27;20199;-73
2023/01/25 01:15:47;;;;;;;28.80;16.43;;;;;;;;;;5117951;27;20212;-73
2023/01/25 01:18:12;;;;;;;28.77;17.73;;;;;;;;;;5115137;27;20547;-72
2023/01/25 01:20:38;;;;;;;26.03;15.53;;;;;;;;;;5097991;27;20219;-73
2023/01/25 01:23:03;;;;;;;28.53;15.47;;;;;;;;;;5117446;27;20191;-73
2023/01/25 01:25:28;;;;;;;27.80;16.80;;;;;;;;;;5116978;27;20270;-73
2023/01/25 01:27:53;;;;;;;28.70;17.17;;;;;;;;;;5113146;27;20183;-74
2023/01/25 01:30:18;;;;;;;29.13;16.83;;;;;;;;;;5129361;27;21787;-72
2023/01/25 01:32:44;;;;;;;29.43;18.53;;;;;;;;;;5130409;27;20206;-73
2023/01/25 01:35:09;;;;;;;28.57;17.20;;;;;;;;;;5124538;27;20287;-73
2023/01/25 01:37:34;;;;;;;27.20;16.57;;;;;;;;;;5105237;28;20215;-73
2023/01/25 01:39:59;;;;;;;33.10;18.77;;;;;;;;;;5130058;27;20199;-73
2023/01/25 01:42:24;;;;;;;33.60;18.20;;;;;;;;;;5125511;27;20286;-73
2023/01/25 01:44:51;;;;;;;31.10;17.63;;;;;;;;;;5112251;27;20560;-73
2023/01/25 01:47:27;;;;;;;33.53;18.03;;;;;;;;;;5118545;27;20171;-72
2023/01/25 01:49:54;;;;;;;29.43;16.73;;;;;;;;;;5130198;27;20197;-73
2023/01/25 01:52:22;;;;;;;29.17;17.23;;;;;;;;;;5132623;27;20209;-73
2023/01/25 01:54:51;;;;;;;29.50;16.30;;;;;;;;;;5111164;27;20193;-73
2023/01/25 01:57:18;;;;;;;25.77;15.57;;;;;;;;;;5124310;27;20258;-72
2023/01/25 01:59:49;;;;;;;30.57;17.90;;;;;;;;;;5130454;27;20213;-73
2023/01/25 02:02:15;;;;;;;27.90;17.47;;;;;;;;;;5122537;27;20192;-73
2023/01/25 02:04:41;;;;;;;30.80;17.33;;;;;;;;;;5130925;27;20657;-73
2023/01/25 02:07:12;;;;;;;29.60;16.97;;;;;;;;;;5122518;27;20183;-73
2023/01/25 02:09:37;;;;;;;28.47;17.27;;;;;;;;;;5130208;27;20171;-73
2023/01/25 02:12:03;;;;;;;31.50;16.57;;;;;;;;;;5129619;27;20722;-73
2023/01/25 02:14:29;;;;;;;30.40;17.30;;;;;;;;;;5129247;27;20190;-73
2023/01/25 02:16:54;;;;;;;28.80;17.53;;;;;;;;;;5118581;27;20183;-73
2023/01/25 02:19:33;;;;;;;31.43;18.10;;;;;;;;;;5115767;27;20611;-73
2023/01/25 02:21:59;;;;;;;32.80;18.23;;;;;;;;;;5116417;27;22100;-73
2023/01/25 02:24:29;;;;;;;30.70;17.27;;;;;;;;;;5116187;27;20172;-73
2023/01/25 02:26:55;;;;;;;31.03;16.70;;;;;;;;;;5111925;27;20189;-73
2023/01/25 02:29:23;;;;;;;32.67;18.37;;;;;;;;;;5112815;27;20179;-73
2023/01/25 02:31:51;;;;;;;34.27;18.20;;;;;;;;;;5112777;27;20206;-72
2023/01/25 02:34:16;;;;;;;32.20;16.43;;;;;;;;;;5116013;27;20179;-72
2023/01/25 02:36:41;;;;;;;29.93;16.73;;;;;;;;;;5099136;27;20179;-72
2023/01/25 02:39:14;;;;;;;29.80;16.43;;;;;;;;;;5114168;27;20194;-73
2023/01/25 02:41:40;;;;;;;32.23;19.27;;;;;;;;;;5116538;27;20191;-73
2023/01/25 02:44:10;;;;;;;30.93;17.17;;;;;;;;;;5112527;27;20182;-72
2023/01/25 02:46:37;;;;;;;29.07;16.87;;;;;;;;;;5127323;27;20175;-72
2023/01/25 02:49:02;;;;;;;29.40;17.17;;;;;;;;;;5131030;27;20175;-72
2023/01/25 02:51:29;;;;;;;32.03;17.50;;;;;;;;;;5131410;27;20222;-73
2023/01/25 02:53:54;;;;;;;34.73;17.67;;;;;;;;;;5124807;27;20182;-73
2023/01/25 02:56:20;;;;;;;30.13;17.60;;;;;;;;;;5104872;27;20558;-73
2023/01/25 02:58:45;;;;;;;33.57;18.50;;;;;;;;;;5127246;27;20648;-73
2023/01/25 03:01:11;;;;;;;31.43;17.73;;;;;;;;;;5129558;27;20209;-73
2023/01/25 03:03:36;;;;;;;33.17;18.67;;;;;;;;;;5128432;27;20182;-73
2023/01/25 03:06:02;;;;;;;31.27;17.93;;;;;;;;;;5125922;27;20182;-73
2023/01/25 03:08:27;;;;;;;35.17;18.60;;;;;;;;;;5129445;27;21576;-73
2023/01/25 03:10:59;;;;;;;33.03;17.13;;;;;;;;;;5130148;27;20874;-73
2023/01/25 03:13:24;;;;;;;32.07;17.03;;;;;;;;;;5125522;27;20273;-73
2023/01/25 03:15:50;;;;;;;31.80;17.17;;;;;;;;;;5114313;27;20408;-73
2023/01/25 03:18:15;;;;;;;30.80;17.27;;;;;;;;;;5093496;27;20299;-73
2023/01/25 03:20:40;;;;;;;35.27;19.13;;;;;;;;;;5126422;27;20258;-73
2023/01/25 03:23:05;;;;;;;32.63;19.57;;;;;;;;;;5101045;27;20195;-72
2023/01/25 03:25:31;;;;;;;33.70;18.47;;;;;;;;;;5125500;27;20175;-72
2023/01/25 03:27:56;;;;;;;33.17;18.80;;;;;;;;;;5121073;27;20179;-72
2023/01/25 03:30:21;;;;;;;35.93;19.80;;;;;;;;;;5117254;27;20179;-73
2023/01/25 03:32:47;;;;;;;32.20;19.93;;;;;;;;;;5124672;27;20190;-73
2023/01/25 03:35:12;;;;;;;30.47;17.33;;;;;;;;;;5131026;27;20223;-72
2023/01/25 03:37:37;;;;;;;31.40;18.10;;;;;;;;;;5104281;28;20258;-72
2023/01/25 03:40:02;;;;;;;31.77;18.50;;;;;;;;;;5108016;27;20202;-73
2023/01/25 03:42:28;;;;;;;32.07;18.40;;;;;;;;;;5131283;27;20191;-72
2023/01/25 03:44:53;;;;;;;35.90;18.93;;;;;;;;;;5128547;27;20175;-72
2023/01/25 03:47:18;;;;;;;33.23;18.83;;;;;;;;;;5128407;27;20186;-73
2023/01/25 03:49:43;;;;;;;33.13;17.93;;;;;;;;;;5127420;27;20626;-73
2023/01/25 03:52:08;;;;;;;35.07;18.20;;;;;;;;;;5130669;27;20202;-73
2023/01/25 03:54:34;;;;;;;30.43;17.40;;;;;;;;;;5113260;27;20227;-73
2023/01/25 03:56:59;;;;;;;33.50;18.47;;;;;;;;;;5127451;27;20262;-72
2023/01/25 03:59:24;;;;;;;33.17;18.00;;;;;;;;;;5114917;27;20215;-73
2023/01/25 04:01:49;;;;;;;33.27;18.63;;;;;;;;;;5130807;27;20201;-73
2023/01/25 04:04:15;;;;;;;34.03;19.43;;;;;;;;;;5128488;27;20315;-72
2023/01/25 04:06:40;;;;;;;35.97;18.73;;;;;;;;;;5119329;27;20605;-73
2023/01/25 04:09:05;;;;;;;33.50;19.63;;;;;;;;;;5126274;27;20564;-72
2023/01/25 04:11:30;;;;;;;38.37;19.30;;;;;;;;;;5139371;22;20218;-78
2023/01/25 04:13:55;;;;;;;35.67;19.73;;;;;;;;;;5102503;28;20187;-78
2023/01/25 04:16:21;;;;;;;36.50;20.77;;;;;;;;;;5094317;28;20176;-78
2023/01/25 04:18:46;;;;;;;37.03;19.47;;;;;;;;;;5090738;28;20182;-79
2023/01/25 04:21:11;;;;;;;41.57;20.27;;;;;;;;;;5094294;28;20774;-79
2023/01/25 04:23:36;;;;;;;36.03;20.93;;;;;;;;;;5097101;27;20185;-77
2023/01/25 04:26:04;;;;;;;35.57;20.30;;;;;;;;;;5111301;27;20180;-77
2023/01/25 04:28:30;;;;;;;38.80;20.20;;;;;;;;;;5137963;27;20178;-77
2023/01/25 04:30:55;;;;;;;37.47;19.70;;;;;;;;;;5117155;27;20217;-77
2023/01/25 04:33:21;;;;;;;36.50;20.13;;;;;;;;;;5120237;27;20195;-79
2023/01/25 04:35:46;;;;;;;36.10;20.60;;;;;;;;;;5097841;27;20179;-77
2023/01/25 04:38:11;;;;;;;40.83;21.53;;;;;;;;;;5117716;27;20183;-77
2023/01/25 04:40:37;;;;;;;39.87;21.10;;;;;;;;;;5131339;27;20202;-78
2023/01/25 04:43:02;;;;;;;38.43;21.53;;;;;;;;;;5132434;27;20202;-78
2023/01/25 04:45:28;;;;;;;41.33;20.87;;;;;;;;;;5113890;27;20175;-78
2023/01/25 04:47:56;;;;;;;39.83;22.40;;;;;;;;;;5133423;27;20175;-78
2023/01/25 04:50:22;;;;;;;38.33;21.07;;;;;;;;;;5131545;27;20602;-78
2023/01/25 04:52:47;;;;;;;39.67;21.37;;;;;;;;;;5112695;27;20190;-78
2023/01/25 04:55:12;;;;;;;39.20;21.80;;;;;;;;;;5115263;27;20206;-78
2023/01/25 04:57:37;;;;;;;40.13;22.43;;;;;;;;;;5115502;27;20179;-78
2023/01/25 05:00:03;;;;;;;42.20;22.67;;;;;;;;;;5110479;27;20198;-78
2023/01/25 05:02:28;;;;;;;35.83;20.63;;;;;;;;;;5132942;27;20213;-78
2023/01/25 05:04:53;;;;;;;40.60;20.93;;;;;;;;;;5133530;27;20187;-78
2023/01/25 05:07:18;;;;;;;42.00;21.03;;;;;;;;;;5134561;27;20175;-78
2023/01/25 05:09:43;;;;;;;36.77;19.23;;;;;;;;;;5119230;27;20177;-78
2023/01/25 05:12:12;;;;;;;38.23;20.43;;;;;;;;;;5134324;27;20238;-78
2023/01/25 05:14:37;;;;;;;39.57;22.30;;;;;;;;;;5126109;27;20171;-78
2023/01/25 05:17:03;;;;;;;43.27;23.47;;;;;;;;;;5113203;27;20228;-78
2023/01/25 05:19:28;;;;;;;39.07;20.80;;;;;;;;;;5125489;27;20210;-77
2023/01/25 05:21:56;;;;;;;39.50;20.97;;;;;;;;;;5133008;27;20710;-78
2023/01/25 05:24:22;;;;;;;40.90;22.10;;;;;;;;;;5113314;27;20590;-78
2023/01/25 05:26:59;;;;;;;40.57;21.40;;;;;;;;;;5134894;27;20181;-78
2023/01/25 05:29:34;;;;;;;41.83;22.03;;;;;;;;;;5132232;27;20193;-78
2023/01/25 05:32:00;;;;;;;43.73;22.33;;;;;;;;;;5114809;27;20679;-78
2023/01/25 05:34:25;;;;;;;39.10;21.97;;;;;;;;;;5132298;27;20182;-78
2023/01/25 05:36:50;;;;;;;45.13;23.27;;;;;;;;;;5115021;27;20201;-78
2023/01/25 05:39:16;;;;;;;40.00;20.60;;;;;;;;;;5132806;27;20187;-78
2023/01/25 05:41:41;;;;;;;43.07;21.70;;;;;;;;;;5131552;27;20270;-77
2023/01/25 05:44:06;;;;;;;41.47;21.20;;;;;;;;;;5107003;27;20171;-78
2023/01/25 05:46:31;;;;;;;44.33;22.60;;;;;;;;;;5139854;27;20167;-78
2023/01/25 05:48:56;;;;;;;47.77;24.43;;;;;;;;;;5133957;27;20262;-78
2023/01/25 05:51:22;;;;;;;45.47;22.57;;;;;;;;;;5132437;27;20712;-78
2023/01/25 05:53:47;;;;;;;42.37;22.77;;;;;;;;;;5126676;27;20184;-78
2023/01/25 05:56:12;;;;;;;47.50;24.70;;;;;;;;;;5123367;27;20186;-78
2023/01/25 05:58:38;;;;;;;47.30;24.57;;;;;;;;;;5103906;27;20447;-78
2023/01/25 06:01:04;;;;;;;45.23;22.80;;;;;;;;;;5122924;27;20597;-78
2023/01/25 06:03:29;;;;;;;44.17;22.73;;;;;;;;;;5131382;27;20195;-78
2023/01/25 06:05:58;;;;;;;42.93;23.50;;;;;;;;;;5129153;27;20298;-78
2023/01/25 06:08:24;;;;;;;46.27;22.20;;;;;;;;;;5133240;27;20232;-78
2023/01/25 06:10:49;;;;;;;43.03;23.30;;;;;;;;;;5134038;27;20175;-78
2023/01/25 06:13:15;;;;;;;44.93;22.90;;;;;;;;;;5101990;27;20587;-78
2023/01/25 06:15:40;;;;;;;47.37;25.60;;;;;;;;;;5116787;27;20187;-78
2023/01/25 06:18:05;;;;;;;46.70;24.33;;;;;;;;;;5128711;27;20190;-78
2023/01/25 06:20:30;;;;;;;47.97;23.43;;;;;;;;;;5132908;27;20203;-78
2023/01/25 06:22:55;;;;;;;45.10;23.20;;;;;;;;;;5127241;27;20282;-78
2023/01/25 06:25:21;;;;;;;45.57;23.83;;;;;;;;;;5110062;27;20781;-79
2023/01/25 06:27:46;;;;;;;46.37;23.40;;;;;;;;;;5117108;27;20178;-78
2023/01/25 06:30:11;;;;;;;44.33;24.60;;;;;;;;;;5133919;27;20617;-78
2023/01/25 06:32:36;;;;;;;44.63;24.00;;;;;;;;;;5129906;27;20227;-78
2023/01/25 06:35:02;;;;;;;45.83;23.50;;;;;;;;;;5128357;27;20258;-78
2023/01/25 06:37:27;;;;;;;47.30;22.67;;;;;;;;;;5129293;27;20187;-78
2023/01/25 06:39:52;;;;;;;44.40;22.47;;;;;;;;;;5129269;27;20215;-78
2023/01/25 06:42:18;;;;;;;46.33;23.17;;;;;;;;;;5106220;27;20574;-78
2023/01/25 06:44:43;;;;;;;43.53;22.43;;;;;;;;;;5115719;27;20676;-76
2023/01/25 06:47:08;;;;;;;39.97;21.07;;;;;;;;;;5132048;27;20233;-76
2023/01/25 06:49:33;;;;;;;46.60;22.90;;;;;;;;;;5113360;27;20174;-77
2023/01/25 06:52:00;;;;;;;46.53;23.07;;;;;;;;;;5129351;27;20297;-76
2023/01/25 06:54:25;;;;;;;41.80;21.30;;;;;;;;;;5110738;27;20306;-76
2023/01/25 06:56:50;;;;;;;42.40;22.10;;;;;;;;;;5130078;27;20182;-76
2023/01/25 06:59:15;;;;;;;45.13;20.23;;;;;;;;;;5127601;27;20285;-76
2023/01/25 07:01:40;;;;;;;39.53;20.13;;;;;;;;;;5121562;27;20266;-77
2023/01/25 07:04:08;;;;;;;42.57;21.37;;;;;;;;;;5107377;28;20184;-77
2023/01/25 07:06:33;;;;;;;42.30;21.40;;;;;;;;;;5120333;27;20178;-76
2023/01/25 07:09:22;;;;;;;42.87;21.47;;;;;;;;;;5134550;27;20546;-77
2023/01/25 07:11:47;;;;;;;38.90;20.70;;;;;;;;;;5122172;27;20633;-76
2023/01/25 07:14:12;;;;;;;39.47;20.07;;;;;;;;;;5120769;27;20170;-76
2023/01/25 07:16:38;;;;;;;42.73;22.37;;;;;;;;;;5119227;27;20171;-77
2023/01/25 07:19:04;;;;;;;53.50;23.07;;;;;;;;;;5110900;27;20175;-77
2023/01/25 07:21:29;;;;;;;40.50;21.80;;;;;;;;;;5098483;27;20191;-76
2023/01/25 07:23:58;;;;;;;39.87;20.87;;;;;;;;;;5118196;27;20312;-77
2023/01/25 07:26:24;;;;;;;38.63;19.17;;;;;;;;;;5118584;27;20644;-77
2023/01/25 07:28:50;;;;;;;39.87;21.73;;;;;;;;;;5095329;27;20175;-75
2023/01/25 07:31:16;;;;;;;41.87;19.90;;;;;;;;;;5114256;27;20176;-76
2023/01/25 07:33:42;;;;;;;46.67;23.23;;;;;;;;;;5117416;27;20181;-76
2023/01/25 07:36:07;;;;;;;39.87;21.07;;;;;;;;;;5095908;27;20176;-77
2023/01/25 07:38:33;;;;;;;40.90;22.03;;;;;;;;;;5113743;27;20182;-77
2023/01/25 07:40:58;;;;;;;41.90;22.00;;;;;;;;;;5111105;27;22050;-77
2023/01/25 07:43:24;;;;;;;44.70;20.77;;;;;;;;;;5114055;27;20601;-76
2023/01/25 07:45:49;;;;;;;47.00;21.97;;;;;;;;;;5120356;27;20162;-77
2023/01/25 07:48:15;;;;;;;44.60;22.63;;;;;;;;;;5135583;27;20167;-77
2023/01/25 07:50:40;;;;;;;43.93;21.90;;;;;;;;;;5132309;27;20167;-77
2023/01/25 07:53:06;;;;;;;46.30;22.70;;;;;;;;;;5131360;27;20226;-77
2023/01/25 07:55:31;;;;;;;44.93;22.43;;;;;;;;;;5128597;27;20210;-77
2023/01/25 07:57:56;;;;;;;43.67;23.23;;;;;;;;;;5107465;28;20171;-77
2023/01/25 08:00:21;;;;;;;44.93;22.27;;;;;;;;;;5131904;27;20203;-77
2023/01/25 08:02:48;;;;;;;41.30;22.20;;;;;;;;;;5105954;27;20193;-77
2023/01/25 08:05:14;;;;;;;44.63;22.73;;;;;;;;;;5112361;27;20171;-77
2023/01/25 08:07:39;;;;;;;46.40;22.90;;;;;;;;;;5129620;27;20215;-77
2023/01/25 08:10:05;;;;;;;43.20;22.67;;;;;;;;;;5130881;27;20572;-76
2023/01/25 08:12:33;;;;;;;41.47;21.47;;;;;;;;;;5105855;27;20777;-76
2023/01/25 08:14:58;;;;;;;46.37;26.10;;;;;;;;;;5113437;28;20279;-76
2023/01/25 08:17:30;;;;;;;43.30;21.60;;;;;;;;;;5114007;27;20179;-76
2023/01/25 08:19:55;;;;;;;42.80;22.57;;;;;;;;;;5112981;27;20211;-77
2023/01/25 08:22:20;;;;;;;46.97;23.93;;;;;;;;;;5117166;27;20193;-76
2023/01/25 08:24:45;;;;;;;38.47;20.83;;;;;;;;;;5118928;27;20258;-77
2023/01/25 08:27:11;;;;;;;39.03;19.80;;;;;;;;;;5126898;27;20178;-77
2023/01/25 08:29:36;;;;;;;44.90;21.43;;;;;;;;;;5105999;27;20202;-77
2023/01/25 08:32:03;;;;;;;39.83;20.23;;;;;;;;;;5126183;27;20293;-77
2023/01/25 08:34:30;;;;;;;41.60;21.03;;;;;;;;;;5127202;27;20232;-77
2023/01/25 08:36:55;;;;;;;42.20;21.37;;;;;;;;;;5129084;27;20183;-76
2023/01/25 08:39:20;;;;;;;44.23;21.70;;;;;;;;;;5112234;27;20285;-77
2023/01/25 08:41:45;;;;;;;46.67;22.30;;;;;;;;;;5129604;27;20643;-76
2023/01/25 08:44:11;;;;;;;44.23;22.40;;;;;;;;;;5100507;28;20180;-76
2023/01/25 08:46:36;;;;;;;44.43;21.27;;;;;;;;;;5113158;27;20207;-75
2023/01/25 08:49:01;;;;;;;42.20;20.83;;;;;;;;;;5095659;28;20270;-76
2023/01/25 08:51:27;;;;;;;45.77;22.83;;;;;;;;;;5096099;27;20305;-76
2023/01/25 08:53:52;;;;;;;41.03;19.37;;;;;;;;;;5093349;28;20194;-77
2023/01/25 08:56:18;;;;;;;44.07;21.97;;;;;;;;;;5107408;27;20636;-77
2023/01/25 08:58:44;;;;;;;44.13;21.40;;;;;;;;;;5114100;27;20172;-76
2023/01/25 09:01:10;;;;;;;38.80;19.87;;;;;;;;;;5110559;27;20202;-77
2023/01/25 09:03:40;;;;;;;47.43;22.87;;;;;;;;;;5108984;27;20262;-77
2023/01/25 09:06:06;;;;;;;42.80;20.53;;;;;;;;;;5110320;27;20641;-77
2023/01/25 09:08:32;;;;;;;44.47;21.67;;;;;;;;;;5101923;27;20175;-77
2023/01/25 09:11:01;;;;;;;42.50;20.83;;;;;;;;;;5115189;27;20754;-77
2023/01/25 09:13:26;;;;;;;40.73;20.90;;;;;;;;;;5110082;27;20294;-77
2023/01/25 09:15:51;;;;;;;40.87;20.47;;;;;;;;;;5117576;27;20179;-76
2023/01/25 09:18:17;;;;;;;39.93;20.57;;;;;;;;;;5119128;27;20688;-77
2023/01/25 09:20:42;;;;;;;45.03;21.20;;;;;;;;;;5115902;27;20738;-76
2023/01/25 09:23:07;;;;;;;40.67;21.13;;;;;;;;;;5117016;27;20675;-77
2023/01/25 09:25:34;;;;;;;40.60;20.03;;;;;;;;;;5096469;27;20266;-75
2023/01/25 09:27:59;;;;;;;37.33;19.40;;;;;;;;;;5115775;27;20573;-76
2023/01/25 09:30:25;;;;;;;39.87;19.17;;;;;;;;;;5117718;27;21921;-77
2023/01/25 09:32:50;;;;;;;42.07;20.87;;;;;;;;;;5116254;27;20256;-78
2023/01/25 09:35:15;;;;;;;38.37;18.83;;;;;;;;;;5119542;27;20233;-76
2023/01/25 09:37:40;;;;;;;40.37;20.23;;;;;;;;;;5121532;27;20175;-77
2023/01/25 09:40:12;;;;;;;41.27;19.37;;;;;;;;;;5100114;27;20206;-76
2023/01/25 09:42:40;;;;;;;41.13;19.37;;;;;;;;;;5115932;27;20298;-77
2023/01/25 09:45:15;;;;;;;37.33;18.87;;;;;;;;;;5115462;27;20731;-76
2023/01/25 09:47:40;;;;;;;42.90;22.83;;;;;;;;;;5122631;27;20883;-75
2023/01/25 09:50:18;;;;;;;44.73;20.33;;;;;;;;;;5099555;27;20182;-75
2023/01/25 09:53:01;;;;;;;39.27;18.87;;;;;;;;;;5118944;27;20199;-75
2023/01/25 09:55:28;;;;;;;38.10;19.97;;;;;;;;;;5118402;27;20235;-75
2023/01/25 09:57:55;;;;;;;39.53;19.43;;;;;;;;;;5094537;27;20179;-76
2023/01/25 10:00:27;;;;;;;39.50;19.77;;;;;;;;;;5097184;27;20239;-76
2023/01/25 10:02:52;;;;;;;41.10;19.70;;;;;;;;;;5097043;27;20206;-76
2023/01/25 10:05:22;;;;;;;43.70;21.93;;;;;;;;;;5100152;27;20179;-75
2023/01/25 10:07:55;;;;;;;34.93;19.27;;;;;;;;;;5114397;27;21098;-77
2023/01/25 10:10:23;;;;;;;41.03;21.30;;;;;;;;;;5113744;27;20179;-77
2023/01/25 10:12:48;;;;;;;39.30;20.57;;;;;;;;;;5119272;22;20235;-73
2023/01/25 10:15:18;;;;;;;41.13;21.67;;;;;;;;;;5101647;28;20311;-73
2023/01/25 10:17:43;;;;;;;42.67;21.40;;;;;;;;;;5100454;27;20176;-73
2023/01/25 10:20:09;;;;;;;41.63;19.37;;;;;;;;;;5100778;28;20196;-72
2023/01/25 10:22:38;;;;;;;40.53;21.00;;;;;;;;;;5092718;28;20854;-72
2023/01/25 10:25:23;;;;;;;42.70;21.77;;;;;;;;;;5083447;28;20177;-73
2023/01/25 10:27:54;;;;;;;41.93;20.87;;;;;;;;;;5082303;28;20191;-73
2023/01/25 10:30:24;;;;;;;41.73;20.10;;;;;;;;;;5081111;28;20190;-72
2023/01/25 10:32:51;;;;;;;40.97;20.30;;;;;;;;;;5082294;28;20205;-72
2023/01/25 10:35:20;;;;;;;39.47;20.37;;;;;;;;;;5080245;28;20205;-72
2023/01/25 10:37:45;;;;;;;37.90;19.53;;;;;;;;;;5064300;28;20646;-72
2023/01/25 10:40:10;;;;;;;33.50;19.67;;;;;;;;;;5082168;28;20188;-72
2023/01/25 10:42:38;;;;;;;43.63;20.43;;;;;;;;;;5082285;28;20203;-72
2023/01/25 10:45:10;;;;;;;43.73;22.27;;;;;;;;;;5081262;28;20176;-72
2023/01/25 10:47:38;;;;;;;43.03;21.33;;;;;;;;;;5081327;28;20245;-72
2023/01/25 10:50:04;;;;;;;42.40;21.00;;;;;;;;;;5081023;28;20227;-72
2023/01/25 10:52:30;;;;;;;42.93;22.23;;;;;;;;;;5083711;28;20677;-72
2023/01/25 10:55:14;;;;;;;45.40;22.60;;;;;;;;;;5063307;28;20190;-72
2023/01/25 10:57:43;;;;;;;39.37;20.70;;;;;;;;;;5081062;28;20207;-72
2023/01/25 11:00:21;;;;;;;38.30;18.13;;;;;;;;;;5062282;28;20200;-73
2023/01/25 11:02:47;;;;;;;41.10;20.10;;;;;;;;;;5082790;28;20192;-73
2023/01/25 11:05:18;;;;;;;44.63;21.67;;;;;;;;;;5081207;28;20194;-76
2023/01/25 11:07:47;;;;;;;36.03;19.77;;;;;;;;;;5080694;28;20205;-73
2023/01/25 11:10:24;;;;;;;42.47;20.70;;;;;;;;;;5080632;28;20181;-73
2023/01/25 11:13:10;;;;;;;43.43;21.10;;;;;;;;;;5062479;28;20226;-73
2023/01/25 11:15:35;;;;;;;42.87;21.17;;;;;;;;;;5065700;28;20180;-73
2023/01/25 11:18:04;;;;;;;38.33;20.13;;;;;;;;;;5081177;28;20242;-73
2023/01/25 11:20:30;;;;;;;44.50;20.90;;;;;;;;;;5081419;28;20699;-73
2023/01/25 11:22:55;;;;;;;39.37;18.40;;;;;;;;;;5082101;28;20196;-73
2023/01/25 11:25:31;;;;;;;40.30;19.63;;;;;;;;;;5070884;28;20192;-72
2023/01/25 11:28:15;;;;;;;38.50;17.93;;;;;;;;;;5080736;28;20195;-71
2023/01/25 11:30:40;;;;;;;45.37;20.10;;;;;;;;;;5079803;28;20184;-73
2023/01/25 11:33:10;;;;;;;42.80;21.13;;;;;;;;;;5080437;28;20320;-72
2023/01/25 11:35:39;;;;;;;40.77;21.43;;;;;;;;;;5082292;28;20181;-72
2023/01/25 11:38:12;;;;;;;40.10;18.17;;;;;;;;;;5078993;28;20184;-72
2023/01/25 11:40:38;;;;;;;39.67;21.07;;;;;;;;;;5081745;28;20202;-72
2023/01/25 11:43:12;;;;;;;41.47;21.13;;;;;;;;;;5081450;28;20199;-73
2023/01/25 11:45:37;;;;;;;46.60;22.20;;;;;;;;;;5082963;28;20288;-72
2023/01/25 11:48:26;;;;;;;44.10;21.30;;;;;;;;;;5081445;28;20184;-72
2023/01/25 11:50:57;;;;;;;43.83;22.90;;;;;;;;;;5079321;28;20198;-71
2023/01/25 11:53:34;;;;;;;47.47;20.50;;;;;;;;;;5078345;28;20211;-72
2023/01/25 11:56:11;;;;;;;44.33;21.53;;;;;;;;;;5079819;28;20176;-72
2023/01/25 11:58:52;;;;;;;44.43;22.30;;;;;;;;;;5080905;28;20277;-71
2023/01/25 12:01:32;;;;;;;46.47;22.33;;;;;;;;;;5081067;28;20211;-72
2023/01/25 12:03:57;;;;;;;47.17;21.67;;;;;;;;;;5081368;28;20204;-73
2023/01/25 12:06:35;;;;;;;43.10;21.37;;;;;;;;;;5079673;28;20172;-72
2023/01/25 12:09:18;;;;;;;42.67;21.53;;;;;;;;;;5080393;28;20558;-71
2023/01/25 12:11:55;;;;;;;48.53;23.27;;;;;;;;;;5080343;28;20168;-72
2023/01/25 12:14:42;;;;;;;45.77;22.97;;;;;;;;;;5081617;28;20168;-72
2023/01/25 12:17:13;;;;;;;44.67;22.07;;;;;;;;;;5063053;28;20240;-72
2023/01/25 12:19:57;;;;;;;44.10;22.03;;;;;;;;;;5080148;28;20222;-72
2023/01/25 12:22:22;;;;;;;48.93;21.97;;;;;;;;;;5078910;28;20919;-72
2023/01/25 12:24:53;;;;;;;44.20;20.70;;;;;;;;;;5080127;28;20174;-73
2023/01/25 12:27:32;;;;;;;45.63;21.87;;;;;;;;;;5081452;28;20177;-73
2023/01/25 12:30:00;;;;;;;47.87;22.67;;;;;;;;;;5083938;28;20206;-72
2023/01/25 12:32:26;;;;;;;41.97;22.33;;;;;;;;;;5083409;28;20215;-72
2023/01/25 12:35:02;;;;;;;47.87;21.23;;;;;;;;;;5078972;28;20658;-72
2023/01/25 12:37:31;;;;;;;43.40;21.00;;;;;;;;;;5080926;28;20683;-73
2023/01/25 12:40:02;;;;;;;43.67;21.37;;;;;;;;;;5080130;28;20200;-73
2023/01/25 12:42:30;;;;;;;44.17;21.77;;;;;;;;;;5079310;28;20612;-72
2023/01/25 12:44:56;;;;;;;41.10;20.00;;;;;;;;;;5079572;28;20226;-71
2023/01/25 12:47:27;;;;;;;47.50;22.77;;;;;;;;;;5080873;28;20184;-72
2023/01/25 12:49:55;;;;;;;48.10;21.23;;;;;;;;;;5078532;28;20180;-71
2023/01/25 12:52:28;;;;;;;44.80;22.47;;;;;;;;;;5086323;28;20287;-72
2023/01/25 12:54:55;;;;;;;45.60;22.17;;;;;;;;;;5083763;28;20250;-73
2023/01/25 12:57:24;;;;;;;48.93;22.13;;;;;;;;;;5083532;28;20794;-72
2023/01/25 12:59:58;;;;;;;43.80;21.63;;;;;;;;;;5082753;28;20253;-72
2023/01/25 13:02:32;;;;;;;45.40;23.53;;;;;;;;;;5083690;28;20201;-72
2023/01/25 13:05:16;;;;;;;53.30;24.27;;;;;;;;;;5081686;28;20625;-72
2023/01/25 13:07:44;;;;;;;41.60;21.00;;;;;;;;;;5082941;28;20649;-72
2023/01/25 13:10:20;;;;;;;48.50;22.43;;;;;;;;;;5084768;28;20559;-71
2023/01/25 13:12:57;;;;;;;42.17;20.23;;;;;;;;;;5083139;28;20250;-71
2023/01/25 13:15:41;;;;;;;46.83;21.53;;;;;;;;;;5083880;28;20176;-74
2023/01/25 13:18:25;;;;;;;52.77;21.63;;;;;;;;;;5064489;28;20176;-72
2023/01/25 13:20:52;;;;;;;44.73;21.37;;;;;;;;;;5084634;28;20352;-71
2023/01/25 13:23:33;;;;;;;43.00;20.57;;;;;;;;;;5084157;28;20203;-72
2023/01/25 13:26:16;;;;;;;45.93;21.77;;;;;;;;;;5084710;28;20180;-72
2023/01/25 13:28:46;;;;;;;53.20;22.17;;;;;;;;;;5081633;28;20196;-73
2023/01/25 13:31:30;;;;;;;46.20;20.50;;;;;;;;;;5084005;28;20875;-72
2023/01/25 13:33:56;;;;;;;43.13;19.20;;;;;;;;;;5084575;28;20267;-72
2023/01/25 13:36:43;;;;;;;44.07;20.50;;;;;;;;;;5080868;28;20192;-71
2023/01/25 13:39:23;;;;;;;41.37;18.93;;;;;;;;;;5083540;28;20657;-72
2023/01/25 13:42:15;;;;;;;45.03;20.00;;;;;;;;;;5081050;28;20172;-71
2023/01/25 13:44:48;;;;;;;45.90;22.23;;;;;;;;;;5083426;28;20211;-71
2023/01/25 13:47:37;;;;;;;41.60;21.17;;;;;;;;;;5063869;28;20642;-71
2023/01/25 13:50:02;;;;;;;48.70;24.20;;;;;;;;;;5083201;28;20180;-71
2023/01/25 13:52:29;;;;;;;45.67;20.47;;;;;;;;;;5085503;28;20196;-72
2023/01/25 13:54:59;;;;;;;46.43;21.57;;;;;;;;;;5083396;28;20637;-73
2023/01/25 13:57:26;;;;;;;44.20;21.60;;;;;;;;;;5082604;28;20779;-74
2023/01/25 13:59:58;;;;;;;43.43;20.47;;;;;;;;;;5079787;28;20200;-73
2023/01/25 14:02:24;;;;;;;48.90;20.63;;;;;;;;;;5083831;28;20824;-72
2023/01/25 14:04:50;;;;;;;43.80;21.37;;;;;;;;;;5081635;28;20272;-71
2023/01/25 14:07:17;;;;;;;43.77;20.70;;;;;;;;;;5083636;28;20188;-72
2023/01/25 14:09:43;;;;;;;42.60;19.47;;;;;;;;;;5083408;28;20246;-72
2023/01/25 14:12:09;;;;;;;44.63;19.73;;;;;;;;;;5081888;28;20264;-72
2023/01/25 14:14:35;;;;;;;45.13;22.03;;;;;;;;;;5082230;28;20184;-72
2023/01/25 14:17:20;;;;;;;46.87;21.80;;;;;;;;;;5084572;28;20210;-71
2023/01/25 14:19:50;;;;;;;43.00;21.43;;;;;;;;;;5064842;28;20226;-72